Flugwetter

METAR EDDW
2020/08/14 05:50 EDDW 140550Z VRB02KT CAVOK 22/17 Q1012 NOSIG
TAF EDDW
2020/08/14 06:27 TAF EDDW 140500Z 1406/1506 VRB03KT 9999 SCT040 PROB40 TEMPO 1406/1408 -TSRA BKN060CB BECMG 1406/1408 30005KT TEMPO 1410/1419 TSRA BKN040CB PROB30 TEMPO 1411/1418 30015G35KT 2000 TSGR SCT012 BKN025CB TEMPO 1421/1506 2000 BCFG PROB30 TEMPO 1422/1505 0600 FG
METAR EDDH
2020/08/14 05:50 EDDH 140550Z 07004KT 040V110 CAVOK 18/13 Q1013 NOSIG
TAF EDDH
2020/08/14 06:27 TAF EDDH 140500Z 1406/1512 07005KT CAVOK BECMG 1414/1416 06010KT TEMPO 1414/1419 FEW060CB BECMG 1418/1420 03005KT PROB30 TEMPO 1502/1505 2000 BCFG
METAR VRMM
2020/08/14 05:00 VRMM 140500Z 29006KT 9999 FEW018TCU BKN280 31/25 Q1009 NOSIG
TAF VRMM
2020/08/14 06:06 TAF VRMM 140500Z 1406/1512 26009KT 9999 FEW018 TEMPO 1406/1412 FEW018CB

Quelle:

Bereitgestellt von den Servern der NOAA tgftp.nws.noaa.gov
Alle Angaben ohne Gewähr